sensor_id;sensor_type;location;lat;lon;timestamp;P1;durP1;ratioP1;P2;durP2;ratioP2
7330;SDS011;3706;49.198;7.064;2022-11-15T00:01:18;6.03;;;5.07;;
7330;SDS011;3706;49.198;7.064;2022-11-15T00:03:50;9.17;;;5.60;;
7330;SDS011;3706;49.198;7.064;2022-11-15T00:06:19;7.00;;;5.63;;
7330;SDS011;3706;49.198;7.064;2022-11-15T00:08:47;6.17;;;5.07;;
7330;SDS011;3706;49.198;7.064;2022-11-15T00:11:16;9.97;;;5.70;;
7330;SDS011;3706;49.198;7.064;2022-11-15T00:13:44;7.23;;;4.93;;
7330;SDS011;3706;49.198;7.064;2022-11-15T00:16:11;7.00;;;5.03;;
7330;SDS011;3706;49.198;7.064;2022-11-15T00:18:39;7.13;;;5.33;;
7330;SDS011;3706;49.198;7.064;2022-11-15T00:21:10;7.63;;;5.30;;
7330;SDS011;3706;49.198;7.064;2022-11-15T00:23:38;6.60;;;5.47;;
7330;SDS011;3706;49.198;7.064;2022-11-15T00:26:06;6.30;;;5.37;;
7330;SDS011;3706;49.198;7.064;2022-11-15T00:28:39;6.57;;;4.87;;
7330;SDS011;3706;49.198;7.064;2022-11-15T00:31:08;6.93;;;5.20;;
7330;SDS011;3706;49.198;7.064;2022-11-15T00:33:38;6.90;;;5.03;;
7330;SDS011;3706;49.198;7.064;2022-11-15T00:36:17;9.30;;;4.73;;
7330;SDS011;3706;49.198;7.064;2022-11-15T00:38:49;6.60;;;4.80;;
7330;SDS011;3706;49.198;7.064;2022-11-15T00:41:17;5.93;;;5.27;;
7330;SDS011;3706;49.198;7.064;2022-11-15T00:43:44;6.23;;;4.70;;
7330;SDS011;3706;49.198;7.064;2022-11-15T00:46:11;6.37;;;5.00;;
7330;SDS011;3706;49.198;7.064;2022-11-15T00:48:38;7.90;;;5.17;;
7330;SDS011;3706;49.198;7.064;2022-11-15T00:51:05;6.80;;;5.20;;
7330;SDS011;3706;49.198;7.064;2022-11-15T00:53:34;7.57;;;4.90;;
7330;SDS011;3706;49.198;7.064;2022-11-15T00:56:01;6.57;;;5.10;;
7330;SDS011;3706;49.198;7.064;2022-11-15T00:58:28;7.07;;;4.93;;
7330;SDS011;3706;49.198;7.064;2022-11-15T01:00:55;6.50;;;5.03;;
7330;SDS011;3706;49.198;7.064;2022-11-15T01:03:22;6.80;;;4.83;;
7330;SDS011;3706;49.198;7.064;2022-11-15T01:05:51;5.27;;;4.37;;
7330;SDS011;3706;49.198;7.064;2022-11-15T01:08:18;5.57;;;4.83;;
7330;SDS011;3706;49.198;7.064;2022-11-15T01:10:47;5.80;;;5.00;;
7330;SDS011;3706;49.198;7.064;2022-11-15T01:13:14;7.30;;;5.10;;
7330;SDS011;3706;49.198;7.064;2022-11-15T01:15:41;4.70;;;4.30;;
7330;SDS011;3706;49.198;7.064;2022-11-15T01:18:08;5.07;;;4.57;;
7330;SDS011;3706;49.198;7.064;2022-11-15T01:20:38;6.83;;;5.17;;
7330;SDS011;3706;49.198;7.064;2022-11-15T01:23:06;5.80;;;4.90;;
7330;SDS011;3706;49.198;7.064;2022-11-15T01:25:33;5.67;;;4.83;;
7330;SDS011;3706;49.198;7.064;2022-11-15T01:28:02;9.33;;;5.30;;
7330;SDS011;3706;49.198;7.064;2022-11-15T01:30:30;6.73;;;4.63;;
7330;SDS011;3706;49.198;7.064;2022-11-15T01:32:58;6.93;;;5.20;;
7330;SDS011;3706;49.198;7.064;2022-11-15T01:35:26;5.93;;;4.90;;
7330;SDS011;3706;49.198;7.064;2022-11-15T01:37:53;6.40;;;4.67;;
7330;SDS011;3706;49.198;7.064;2022-11-15T01:40:21;5.23;;;4.63;;
7330;SDS011;3706;49.198;7.064;2022-11-15T01:42:48;9.00;;;5.40;;
7330;SDS011;3706;49.198;7.064;2022-11-15T01:45:17;8.77;;;5.13;;
7330;SDS011;3706;49.198;7.064;2022-11-15T01:47:45;5.57;;;4.10;;
7330;SDS011;3706;49.198;7.064;2022-11-15T01:50:17;4.90;;;4.40;;
7330;SDS011;3706;49.198;7.064;2022-11-15T01:53:05;4.60;;;4.20;;
7330;SDS011;3706;49.198;7.064;2022-11-15T01:55:42;6.10;;;4.47;;
7330;SDS011;3706;49.198;7.064;2022-11-15T01:58:10;5.60;;;5.00;;
7330;SDS011;3706;49.198;7.064;2022-11-15T02:00:49;7.83;;;4.50;;
7330;SDS011;3706;49.198;7.064;2022-11-15T02:03:21;7.00;;;5.17;;
7330;SDS011;3706;49.198;7.064;2022-11-15T02:05:52;5.53;;;5.03;;
7330;SDS011;3706;49.198;7.064;2022-11-15T02:08:20;6.50;;;5.10;;
7330;SDS011;3706;49.198;7.064;2022-11-15T02:10:50;6.13;;;4.93;;
7330;SDS011;3706;49.198;7.064;2022-11-15T02:13:17;6.70;;;5.30;;
7330;SDS011;3706;49.198;7.064;2022-11-15T02:15:47;12.43;;;5.50;;
7330;SDS011;3706;49.198;7.064;2022-11-15T02:18:26;6.77;;;5.80;;
7330;SDS011;3706;49.198;7.064;2022-11-15T02:21:00;7.17;;;5.40;;
7330;SDS011;3706;49.198;7.064;2022-11-15T02:23:50;7.73;;;5.37;;
7330;SDS011;3706;49.198;7.064;2022-11-15T02:27:06;6.83;;;5.40;;
7330;SDS011;3706;49.198;7.064;2022-11-15T02:30:02;6.63;;;5.23;;
7330;SDS011;3706;49.198;7.064;2022-11-15T02:32:44;6.93;;;5.63;;
7330;SDS011;3706;49.198;7.064;2022-11-15T02:35:16;8.50;;;6.03;;
7330;SDS011;3706;49.198;7.064;2022-11-15T02:37:54;7.07;;;5.67;;
7330;SDS011;3706;49.198;7.064;2022-11-15T02:40:28;7.17;;;5.30;;
7330;SDS011;3706;49.198;7.064;2022-11-15T02:43:08;7.33;;;5.70;;
7330;SDS011;3706;49.198;7.064;2022-11-15T02:45:57;6.60;;;5.77;;
7330;SDS011;3706;49.198;7.064;2022-11-15T02:48:30;8.77;;;5.80;;
7330;SDS011;3706;49.198;7.064;2022-11-15T02:50:58;8.43;;;5.63;;
7330;SDS011;3706;49.198;7.064;2022-11-15T02:53:26;7.77;;;5.30;;
7330;SDS011;3706;49.198;7.064;2022-11-15T02:55:54;6.27;;;5.33;;
7330;SDS011;3706;49.198;7.064;2022-11-15T02:58:38;6.17;;;5.23;;
7330;SDS011;3706;49.198;7.064;2022-11-15T03:01:41;5.53;;;4.93;;
7330;SDS011;3706;49.198;7.064;2022-11-15T03:04:18;7.93;;;4.80;;
7330;SDS011;3706;49.198;7.064;2022-11-15T03:06:52;5.63;;;4.97;;
7330;SDS011;3706;49.198;7.064;2022-11-15T03:09:26;8.87;;;5.23;;
7330;SDS011;3706;49.198;7.064;2022-11-15T03:12:01;5.50;;;4.97;;
7330;SDS011;3706;49.198;7.064;2022-11-15T03:14:34;5.90;;;5.00;;
7330;SDS011;3706;49.198;7.064;2022-11-15T03:17:12;7.23;;;5.47;;
7330;SDS011;3706;49.198;7.064;2022-11-15T03:19:47;5.60;;;4.93;;
7330;SDS011;3706;49.198;7.064;2022-11-15T03:22:17;6.10;;;4.73;;
7330;SDS011;3706;49.198;7.064;2022-11-15T03:24:58;8.77;;;4.80;;
7330;SDS011;3706;49.198;7.064;2022-11-15T03:27:31;6.70;;;4.77;;
7330;SDS011;3706;49.198;7.064;2022-11-15T03:30:03;7.37;;;4.47;;
7330;SDS011;3706;49.198;7.064;2022-11-15T03:32:42;7.67;;;5.00;;
7330;SDS011;3706;49.198;7.064;2022-11-15T03:35:14;5.67;;;4.60;;
7330;SDS011;3706;49.198;7.064;2022-11-15T03:37:47;5.30;;;4.40;;
7330;SDS011;3706;49.198;7.064;2022-11-15T03:40:20;5.27;;;4.23;;
7330;SDS011;3706;49.198;7.064;2022-11-15T03:42:56;4.67;;;4.27;;
7330;SDS011;3706;49.198;7.064;2022-11-15T03:45:29;4.70;;;4.07;;
7330;SDS011;3706;49.198;7.064;2022-11-15T03:48:01;6.30;;;4.60;;
7330;SDS011;3706;49.198;7.064;2022-11-15T03:50:33;4.93;;;4.07;;
7330;SDS011;3706;49.198;7.064;2022-11-15T03:53:01;6.50;;;4.37;;
7330;SDS011;3706;49.198;7.064;2022-11-15T03:55:29;6.00;;;4.27;;
7330;SDS011;3706;49.198;7.064;2022-11-15T03:57:59;6.07;;;4.70;;
7330;SDS011;3706;49.198;7.064;2022-11-15T04:00:27;5.27;;;4.43;;
7330;SDS011;3706;49.198;7.064;2022-11-15T04:02:56;4.80;;;4.07;;
7330;SDS011;3706;49.198;7.064;2022-11-15T04:05:30;6.50;;;3.70;;
7330;SDS011;3706;49.198;7.064;2022-11-15T04:07:58;5.67;;;4.00;;
7330;SDS011;3706;49.198;7.064;2022-11-15T04:10:28;6.00;;;4.00;;
7330;SDS011;3706;49.198;7.064;2022-11-15T04:13:04;5.53;;;3.90;;
7330;SDS011;3706;49.198;7.064;2022-11-15T04:15:31;4.20;;;3.80;;
7330;SDS011;3706;49.198;7.064;2022-11-15T04:17:58;4.30;;;3.53;;
7330;SDS011;3706;49.198;7.064;2022-11-15T04:20:26;4.17;;;3.77;;
7330;SDS011;3706;49.198;7.064;2022-11-15T04:23:13;4.30;;;3.40;;
7330;SDS011;3706;49.198;7.064;2022-11-15T04:25:59;6.17;;;3.77;;
7330;SDS011;3706;49.198;7.064;2022-11-15T04:28:29;5.23;;;3.63;;
7330;SDS011;3706;49.198;7.064;2022-11-15T04:30:57;4.37;;;3.53;;
7330;SDS011;3706;49.198;7.064;2022-11-15T04:33:25;6.27;;;3.57;;
7330;SDS011;3706;49.198;7.064;2022-11-15T04:35:52;4.17;;;3.77;;
7330;SDS011;3706;49.198;7.064;2022-11-15T04:38:38;5.53;;;3.63;;
7330;SDS011;3706;49.198;7.064;2022-11-15T04:41:05;5.77;;;3.50;;
7330;SDS011;3706;49.198;7.064;2022-11-15T04:43:32;4.50;;;3.87;;
7330;SDS011;3706;49.198;7.064;2022-11-15T04:46:04;4.30;;;3.10;;
7330;SDS011;3706;49.198;7.064;2022-11-15T04:48:42;8.90;;;4.50;;
7330;SDS011;3706;49.198;7.064;2022-11-15T04:51:10;4.37;;;3.53;;
7330;SDS011;3706;49.198;7.064;2022-11-15T04:53:38;6.63;;;3.80;;
7330;SDS011;3706;49.198;7.064;2022-11-15T04:56:05;3.57;;;3.17;;
7330;SDS011;3706;49.198;7.064;2022-11-15T04:58:33;3.73;;;3.43;;
7330;SDS011;3706;49.198;7.064;2022-11-15T05:01:06;5.40;;;4.90;;
7330;SDS011;3706;49.198;7.064;2022-11-15T05:03:34;4.43;;;4.03;;
7330;SDS011;3706;49.198;7.064;2022-11-15T05:06:21;4.67;;;3.80;;
7330;SDS011;3706;49.198;7.064;2022-11-15T05:08:49;4.77;;;3.50;;
7330;SDS011;3706;49.198;7.064;2022-11-15T05:11:16;5.50;;;4.00;;
7330;SDS011;3706;49.198;7.064;2022-11-15T05:16:11;6.60;;;4.80;;
7330;SDS011;3706;49.198;7.064;2022-11-15T05:18:38;5.07;;;4.57;;
7330;SDS011;3706;49.198;7.064;2022-11-15T05:21:06;4.53;;;4.00;;
7330;SDS011;3706;49.198;7.064;2022-11-15T05:23:35;5.90;;;5.00;;
7330;SDS011;3706;49.198;7.064;2022-11-15T05:26:04;12.30;;;8.67;;
7330;SDS011;3706;49.198;7.064;2022-11-15T05:28:32;9.77;;;8.13;;
7330;SDS011;3706;49.198;7.064;2022-11-15T05:31:00;6.47;;;5.37;;
7330;SDS011;3706;49.198;7.064;2022-11-15T05:33:27;5.37;;;4.60;;
7330;SDS011;3706;49.198;7.064;2022-11-15T05:35:56;6.73;;;6.13;;
7330;SDS011;3706;49.198;7.064;2022-11-15T05:38:28;5.60;;;4.67;;
7330;SDS011;3706;49.198;7.064;2022-11-15T05:40:56;6.77;;;5.27;;
7330;SDS011;3706;49.198;7.064;2022-11-15T05:43:24;4.60;;;4.20;;
7330;SDS011;3706;49.198;7.064;2022-11-15T05:45:54;5.07;;;4.67;;
7330;SDS011;3706;49.198;7.064;2022-11-15T05:48:24;4.37;;;3.73;;
7330;SDS011;3706;49.198;7.064;2022-11-15T05:50:53;4.67;;;4.17;;
7330;SDS011;3706;49.198;7.064;2022-11-15T05:53:21;7.13;;;4.37;;
7330;SDS011;3706;49.198;7.064;2022-11-15T05:55:51;5.23;;;4.40;;
7330;SDS011;3706;49.198;7.064;2022-11-15T05:58:18;5.30;;;4.80;;
7330;SDS011;3706;49.198;7.064;2022-11-15T13:03:20;2.00;;;1.77;;
7330;SDS011;3706;49.198;7.064;2022-11-15T13:08:57;2.23;;;1.70;;
7330;SDS011;3706;49.198;7.064;2022-11-15T13:17:21;2.63;;;1.80;;
7330;SDS011;3706;49.198;7.064;2022-11-15T13:20:16;2.80;;;2.47;;
7330;SDS011;3706;49.198;7.064;2022-11-15T13:22:46;3.23;;;2.50;;
7330;SDS011;3706;49.198;7.064;2022-11-15T13:25:21;2.97;;;2.60;;
7330;SDS011;3706;49.198;7.064;2022-11-15T13:27:56;2.27;;;1.93;;
7330;SDS011;3706;49.198;7.064;2022-11-15T13:30:25;2.57;;;2.17;;
7330;SDS011;3706;49.198;7.064;2022-11-15T13:32:54;2.57;;;2.03;;
7330;SDS011;3706;49.198;7.064;2022-11-15T13:35:23;2.43;;;2.17;;
7330;SDS011;3706;49.198;7.064;2022-11-15T13:37:52;2.77;;;2.47;;
7330;SDS011;3706;49.198;7.064;2022-11-15T13:40:25;2.13;;;1.83;;
7330;SDS011;3706;49.198;7.064;2022-11-15T13:42:55;3.67;;;2.17;;
7330;SDS011;3706;49.198;7.064;2022-11-15T13:45:23;3.00;;;2.20;;
7330;SDS011;3706;49.198;7.064;2022-11-15T13:47:52;2.17;;;1.97;;
7330;SDS011;3706;49.198;7.064;2022-11-15T13:50:21;4.20;;;2.20;;
7330;SDS011;3706;49.198;7.064;2022-11-15T13:52:51;2.37;;;1.97;;
7330;SDS011;3706;49.198;7.064;2022-11-15T13:55:20;2.30;;;2.00;;
7330;SDS011;3706;49.198;7.064;2022-11-15T13:57:51;9.53;;;2.20;;
7330;SDS011;3706;49.198;7.064;2022-11-15T14:00:25;2.83;;;2.00;;
7330;SDS011;3706;49.198;7.064;2022-11-15T14:02:55;4.37;;;2.33;;
7330;SDS011;3706;49.198;7.064;2022-11-15T14:05:30;2.10;;;1.90;;
7330;SDS011;3706;49.198;7.064;2022-11-15T14:07:58;2.23;;;2.03;;
7330;SDS011;3706;49.198;7.064;2022-11-15T14:10:28;4.17;;;2.10;;
7330;SDS011;3706;49.198;7.064;2022-11-15T14:12:57;2.93;;;1.90;;
7330;SDS011;3706;49.198;7.064;2022-11-15T14:15:26;3.13;;;2.23;;
7330;SDS011;3706;49.198;7.064;2022-11-15T14:17:56;2.10;;;1.90;;
7330;SDS011;3706;49.198;7.064;2022-11-15T14:20:27;3.13;;;2.00;;
7330;SDS011;3706;49.198;7.064;2022-11-15T14:22:57;3.17;;;2.00;;
7330;SDS011;3706;49.198;7.064;2022-11-15T14:25:25;2.50;;;2.30;;
7330;SDS011;3706;49.198;7.064;2022-11-15T14:28:14;3.10;;;2.13;;
7330;SDS011;3706;49.198;7.064;2022-11-15T14:30:55;2.20;;;2.00;;
7330;SDS011;3706;49.198;7.064;2022-11-15T14:33:23;2.37;;;1.70;;
7330;SDS011;3706;49.198;7.064;2022-11-15T14:35:54;1.90;;;1.80;;
7330;SDS011;3706;49.198;7.064;2022-11-15T14:38:22;2.90;;;1.70;;
7330;SDS011;3706;49.198;7.064;2022-11-15T14:40:50;3.17;;;1.90;;
7330;SDS011;3706;49.198;7.064;2022-11-15T14:43:18;3.90;;;1.60;;
7330;SDS011;3706;49.198;7.064;2022-11-15T14:45:45;2.40;;;1.80;;
7330;SDS011;3706;49.198;7.064;2022-11-15T14:48:12;1.97;;;1.63;;
7330;SDS011;3706;49.198;7.064;2022-11-15T14:50:39;2.87;;;2.27;;
7330;SDS011;3706;49.198;7.064;2022-11-15T14:53:06;5.07;;;2.17;;
7330;SDS011;3706;49.198;7.064;2022-11-15T14:55:37;4.17;;;2.70;;
7330;SDS011;3706;49.198;7.064;2022-11-15T14:58:05;2.93;;;2.30;;
7330;SDS011;3706;49.198;7.064;2022-11-15T15:00:34;3.70;;;2.30;;
7330;SDS011;3706;49.198;7.064;2022-11-15T15:03:02;2.33;;;2.13;;
7330;SDS011;3706;49.198;7.064;2022-11-15T15:05:31;2.10;;;1.90;;
7330;SDS011;3706;49.198;7.064;2022-11-15T15:07:59;3.17;;;2.00;;
7330;SDS011;3706;49.198;7.064;2022-11-15T15:10:27;3.63;;;2.30;;
7330;SDS011;3706;49.198;7.064;2022-11-15T15:12:57;2.93;;;2.63;;
7330;SDS011;3706;49.198;7.064;2022-11-15T15:15:25;5.10;;;2.50;;
7330;SDS011;3706;49.198;7.064;2022-11-15T15:17:57;2.77;;;2.00;;
7330;SDS011;3706;49.198;7.064;2022-11-15T15:20:24;3.63;;;2.63;;
7330;SDS011;3706;49.198;7.064;2022-11-15T15:22:50;2.13;;;1.93;;
7330;SDS011;3706;49.198;7.064;2022-11-15T15:25:20;4.27;;;2.60;;
7330;SDS011;3706;49.198;7.064;2022-11-15T15:27:48;4.23;;;2.20;;
7330;SDS011;3706;49.198;7.064;2022-11-15T15:30:15;2.27;;;2.00;;
7330;SDS011;3706;49.198;7.064;2022-11-15T15:32:43;3.47;;;2.80;;
7330;SDS011;3706;49.198;7.064;2022-11-15T15:35:12;2.90;;;2.60;;
7330;SDS011;3706;49.198;7.064;2022-11-15T15:37:40;2.73;;;2.40;;
7330;SDS011;3706;49.198;7.064;2022-11-15T15:40:10;3.67;;;2.30;;
7330;SDS011;3706;49.198;7.064;2022-11-15T15:42:39;3.40;;;2.53;;
7330;SDS011;3706;49.198;7.064;2022-11-15T15:45:06;3.40;;;2.37;;
7330;SDS011;3706;49.198;7.064;2022-11-15T15:47:34;3.13;;;2.33;;
7330;SDS011;3706;49.198;7.064;2022-11-15T15:50:01;2.87;;;2.57;;
7330;SDS011;3706;49.198;7.064;2022-11-15T15:52:30;3.50;;;2.43;;
7330;SDS011;3706;49.198;7.064;2022-11-15T15:54:56;4.93;;;2.40;;
7330;SDS011;3706;49.198;7.064;2022-11-15T15:57:23;2.80;;;2.23;;
7330;SDS011;3706;49.198;7.064;2022-11-15T15:59:50;5.27;;;2.60;;
7330;SDS011;3706;49.198;7.064;2022-11-15T16:02:17;3.00;;;2.40;;
7330;SDS011;3706;49.198;7.064;2022-11-15T16:04:44;2.53;;;2.23;;
7330;SDS011;3706;49.198;7.064;2022-11-15T16:07:15;2.90;;;2.43;;
7330;SDS011;3706;49.198;7.064;2022-11-15T16:09:48;2.77;;;2.10;;
7330;SDS011;3706;49.198;7.064;2022-11-15T16:12:28;4.20;;;2.53;;
7330;SDS011;3706;49.198;7.064;2022-11-15T16:14:55;2.87;;;2.53;;
7330;SDS011;3706;49.198;7.064;2022-11-15T16:17:23;2.60;;;2.33;;
7330;SDS011;3706;49.198;7.064;2022-11-15T16:19:52;3.30;;;2.90;;
7330;SDS011;3706;49.198;7.064;2022-11-15T16:22:19;2.80;;;2.40;;
7330;SDS011;3706;49.198;7.064;2022-11-15T16:24:46;3.70;;;3.00;;
7330;SDS011;3706;49.198;7.064;2022-11-15T16:27:14;3.57;;;2.90;;
7330;SDS011;3706;49.198;7.064;2022-11-15T16:29:42;3.77;;;3.13;;
7330;SDS011;3706;49.198;7.064;2022-11-15T16:32:09;2.90;;;2.60;;
7330;SDS011;3706;49.198;7.064;2022-11-15T16:34:36;3.53;;;2.40;;
7330;SDS011;3706;49.198;7.064;2022-11-15T16:37:03;4.83;;;3.70;;
7330;SDS011;3706;49.198;7.064;2022-11-15T16:39:31;4.77;;;3.70;;
7330;SDS011;3706;49.198;7.064;2022-11-15T16:41:59;3.87;;;3.00;;
7330;SDS011;3706;49.198;7.064;2022-11-15T16:44:27;4.83;;;3.07;;
7330;SDS011;3706;49.198;7.064;2022-11-15T16:46:54;3.07;;;2.77;;
7330;SDS011;3706;49.198;7.064;2022-11-15T16:49:21;5.80;;;3.00;;
7330;SDS011;3706;49.198;7.064;2022-11-15T16:51:48;4.03;;;2.50;;
7330;SDS011;3706;49.198;7.064;2022-11-15T16:54:16;3.43;;;2.93;;
7330;SDS011;3706;49.198;7.064;2022-11-15T16:56:43;3.50;;;3.20;;
7330;SDS011;3706;49.198;7.064;2022-11-15T16:59:13;3.47;;;3.10;;
7330;SDS011;3706;49.198;7.064;2022-11-15T17:01:42;4.33;;;3.00;;
7330;SDS011;3706;49.198;7.064;2022-11-15T17:04:14;3.20;;;2.90;;
7330;SDS011;3706;49.198;7.064;2022-11-15T17:06:42;4.23;;;3.67;;
7330;SDS011;3706;49.198;7.064;2022-11-15T17:09:12;4.57;;;3.63;;
7330;SDS011;3706;49.198;7.064;2022-11-15T17:11:43;4.23;;;3.20;;
7330;SDS011;3706;49.198;7.064;2022-11-15T17:14:12;3.67;;;3.17;;
7330;SDS011;3706;49.198;7.064;2022-11-15T17:16:39;6.23;;;3.30;;
7330;SDS011;3706;49.198;7.064;2022-11-15T17:19:10;5.07;;;3.60;;
7330;SDS011;3706;49.198;7.064;2022-11-15T17:21:39;5.20;;;3.70;;
7330;SDS011;3706;49.198;7.064;2022-11-15T17:24:07;3.80;;;3.00;;
7330;SDS011;3706;49.198;7.064;2022-11-15T17:26:34;4.87;;;3.60;;
7330;SDS011;3706;49.198;7.064;2022-11-15T17:29:01;4.50;;;3.50;;
7330;SDS011;3706;49.198;7.064;2022-11-15T17:31:30;4.20;;;3.67;;
7330;SDS011;3706;49.198;7.064;2022-11-15T17:33:58;6.03;;;3.63;;
7330;SDS011;3706;49.198;7.064;2022-11-15T17:36:25;4.00;;;3.60;;
7330;SDS011;3706;49.198;7.064;2022-11-15T17:38:52;5.37;;;3.83;;
7330;SDS011;3706;49.198;7.064;2022-11-15T17:41:19;4.83;;;4.13;;
7330;SDS011;3706;49.198;7.064;2022-11-15T17:43:46;4.87;;;4.07;;
7330;SDS011;3706;49.198;7.064;2022-11-15T17:46:14;4.90;;;3.50;;
7330;SDS011;3706;49.198;7.064;2022-11-15T17:48:44;6.90;;;5.30;;
7330;SDS011;3706;49.198;7.064;2022-11-15T17:51:12;6.13;;;4.03;;
7330;SDS011;3706;49.198;7.064;2022-11-15T17:53:42;5.47;;;3.97;;
7330;SDS011;3706;49.198;7.064;2022-11-15T17:56:10;4.43;;;4.03;;
7330;SDS011;3706;49.198;7.064;2022-11-15T17:58:38;3.97;;;3.40;;
7330;SDS011;3706;49.198;7.064;2022-11-15T18:01:06;9.07;;;3.27;;
7330;SDS011;3706;49.198;7.064;2022-11-15T18:03:34;4.87;;;4.13;;
7330;SDS011;3706;49.198;7.064;2022-11-15T18:06:03;5.70;;;3.90;;
7330;SDS011;3706;49.198;7.064;2022-11-15T18:08:31;4.90;;;3.10;;
7330;SDS011;3706;49.198;7.064;2022-11-15T18:11:01;4.40;;;4.00;;
7330;SDS011;3706;49.198;7.064;2022-11-15T18:13:32;5.93;;;5.33;;
7330;SDS011;3706;49.198;7.064;2022-11-15T18:16:00;4.67;;;4.17;;
7330;SDS011;3706;49.198;7.064;2022-11-15T18:18:28;4.87;;;3.57;;
7330;SDS011;3706;49.198;7.064;2022-11-15T18:21:00;4.63;;;3.70;;
7330;SDS011;3706;49.198;7.064;2022-11-15T18:23:29;4.20;;;3.40;;
7330;SDS011;3706;49.198;7.064;2022-11-15T18:25:57;4.67;;;4.07;;
7330;SDS011;3706;49.198;7.064;2022-11-15T18:28:28;4.87;;;4.30;;
7330;SDS011;3706;49.198;7.064;2022-11-15T18:30:57;5.37;;;3.93;;
7330;SDS011;3706;49.198;7.064;2022-11-15T18:33:25;6.00;;;4.20;;
7330;SDS011;3706;49.198;7.064;2022-11-15T18:35:59;5.57;;;4.17;;
7330;SDS011;3706;49.198;7.064;2022-11-15T18:38:28;5.37;;;4.23;;
7330;SDS011;3706;49.198;7.064;2022-11-15T18:40:56;5.47;;;4.20;;
7330;SDS011;3706;49.198;7.064;2022-11-15T18:43:24;5.03;;;4.03;;
7330;SDS011;3706;49.198;7.064;2022-11-15T18:45:51;7.20;;;6.10;;
7330;SDS011;3706;49.198;7.064;2022-11-15T18:48:18;5.60;;;5.03;;
7330;SDS011;3706;49.198;7.064;2022-11-15T18:50:45;8.63;;;4.97;;
7330;SDS011;3706;49.198;7.064;2022-11-15T18:53:12;4.23;;;3.43;;
7330;SDS011;3706;49.198;7.064;2022-11-15T18:55:41;6.10;;;5.10;;
7330;SDS011;3706;49.198;7.064;2022-11-15T18:58:08;6.30;;;5.17;;
7330;SDS011;3706;49.198;7.064;2022-11-15T19:00:35;8.20;;;5.67;;
7330;SDS011;3706;49.198;7.064;2022-11-15T19:03:02;6.97;;;5.83;;
7330;SDS011;3706;49.198;7.064;2022-11-15T19:05:29;8.63;;;7.10;;
7330;SDS011;3706;49.198;7.064;2022-11-15T19:07:55;6.87;;;5.27;;
7330;SDS011;3706;49.198;7.064;2022-11-15T19:10:22;7.73;;;4.70;;
7330;SDS011;3706;49.198;7.064;2022-11-15T19:12:51;8.03;;;5.87;;
7330;SDS011;3706;49.198;7.064;2022-11-15T19:15:18;5.47;;;4.77;;
7330;SDS011;3706;49.198;7.064;2022-11-15T19:17:44;6.73;;;5.57;;
7330;SDS011;3706;49.198;7.064;2022-11-15T19:20:11;5.40;;;4.90;;
7330;SDS011;3706;49.198;7.064;2022-11-15T19:22:38;6.37;;;4.53;;
7330;SDS011;3706;49.198;7.064;2022-11-15T19:25:05;7.97;;;5.00;;
7330;SDS011;3706;49.198;7.064;2022-11-15T19:27:34;5.80;;;5.07;;
7330;SDS011;3706;49.198;7.064;2022-11-15T19:30:04;7.37;;;5.30;;
7330;SDS011;3706;49.198;7.064;2022-11-15T19:32:32;6.63;;;4.70;;
7330;SDS011;3706;49.198;7.064;2022-11-15T19:34:59;7.33;;;5.17;;
7330;SDS011;3706;49.198;7.064;2022-11-15T19:37:26;6.40;;;5.03;;
7330;SDS011;3706;49.198;7.064;2022-11-15T19:39:53;5.97;;;5.00;;
7330;SDS011;3706;49.198;7.064;2022-11-15T19:42:20;5.97;;;5.03;;
7330;SDS011;3706;49.198;7.064;2022-11-15T19:44:47;5.80;;;5.20;;
7330;SDS011;3706;49.198;7.064;2022-11-15T19:47:15;5.80;;;5.20;;
7330;SDS011;3706;49.198;7.064;2022-11-15T19:49:42;6.60;;;5.47;;
7330;SDS011;3706;49.198;7.064;2022-11-15T19:52:10;7.57;;;5.00;;
7330;SDS011;3706;49.198;7.064;2022-11-15T19:54:37;7.23;;;5.30;;
7330;SDS011;3706;49.198;7.064;2022-11-15T19:57:04;6.53;;;5.37;;
7330;SDS011;3706;49.198;7.064;2022-11-15T19:59:31;7.97;;;5.77;;
7330;SDS011;3706;49.198;7.064;2022-11-15T20:01:58;6.70;;;5.70;;
7330;SDS011;3706;49.198;7.064;2022-11-15T20:04:26;8.33;;;5.93;;
7330;SDS011;3706;49.198;7.064;2022-11-15T20:06:53;8.13;;;6.07;;
7330;SDS011;3706;49.198;7.064;2022-11-15T20:09:20;6.73;;;5.70;;
7330;SDS011;3706;49.198;7.064;2022-11-15T20:11:49;6.80;;;5.50;;
7330;SDS011;3706;49.198;7.064;2022-11-15T20:14:16;7.73;;;5.83;;
7330;SDS011;3706;49.198;7.064;2022-11-15T20:16:43;9.37;;;6.07;;
7330;SDS011;3706;49.198;7.064;2022-11-15T20:19:10;7.23;;;5.70;;
7330;SDS011;3706;49.198;7.064;2022-11-15T20:21:41;6.50;;;5.77;;
7330;SDS011;3706;49.198;7.064;2022-11-15T20:24:09;7.93;;;6.30;;
7330;SDS011;3706;49.198;7.064;2022-11-15T20:26:36;6.17;;;5.57;;
7330;SDS011;3706;49.198;7.064;2022-11-15T20:29:03;6.80;;;6.10;;
7330;SDS011;3706;49.198;7.064;2022-11-15T20:31:30;9.77;;;6.00;;
7330;SDS011;3706;49.198;7.064;2022-11-15T20:33:58;8.03;;;6.03;;
7330;SDS011;3706;49.198;7.064;2022-11-15T20:36:25;7.53;;;5.70;;
7330;SDS011;3706;49.198;7.064;2022-11-15T20:38:56;7.10;;;6.37;;
7330;SDS011;3706;49.198;7.064;2022-11-15T20:41:24;10.37;;;5.60;;
7330;SDS011;3706;49.198;7.064;2022-11-15T20:43:51;6.87;;;5.87;;
7330;SDS011;3706;49.198;7.064;2022-11-15T20:46:18;8.27;;;6.30;;
7330;SDS011;3706;49.198;7.064;2022-11-15T20:48:45;7.57;;;6.20;;
7330;SDS011;3706;49.198;7.064;2022-11-15T20:51:12;7.37;;;6.47;;
7330;SDS011;3706;49.198;7.064;2022-11-15T20:53:40;9.17;;;6.40;;
7330;SDS011;3706;49.198;7.064;2022-11-15T20:56:10;9.17;;;6.87;;
7330;SDS011;3706;49.198;7.064;2022-11-15T20:58:38;7.87;;;6.23;;
7330;SDS011;3706;49.198;7.064;2022-11-15T21:01:06;9.70;;;6.87;;
7330;SDS011;3706;49.198;7.064;2022-11-15T21:03:35;9.97;;;7.10;;
7330;SDS011;3706;49.198;7.064;2022-11-15T21:06:02;7.53;;;6.03;;
7330;SDS011;3706;49.198;7.064;2022-11-15T21:08:29;7.40;;;6.23;;
7330;SDS011;3706;49.198;7.064;2022-11-15T21:11:22;8.37;;;6.20;;
7330;SDS011;3706;49.198;7.064;2022-11-15T21:14:07;7.37;;;5.60;;
7330;SDS011;3706;49.198;7.064;2022-11-15T21:16:34;9.10;;;6.30;;
7330;SDS011;3706;49.198;7.064;2022-11-15T21:19:01;8.10;;;6.43;;
7330;SDS011;3706;49.198;7.064;2022-11-15T21:21:28;5.37;;;4.80;;
7330;SDS011;3706;49.198;7.064;2022-11-15T21:23:55;7.50;;;6.40;;
7330;SDS011;3706;49.198;7.064;2022-11-15T21:26:23;9.13;;;6.80;;
7330;SDS011;3706;49.198;7.064;2022-11-15T21:28:50;7.60;;;6.50;;
7330;SDS011;3706;49.198;7.064;2022-11-15T21:31:17;7.50;;;6.53;;
7330;SDS011;3706;49.198;7.064;2022-11-15T21:33:44;9.13;;;7.63;;
7330;SDS011;3706;49.198;7.064;2022-11-15T21:36:10;9.03;;;6.77;;
7330;SDS011;3706;49.198;7.064;2022-11-15T21:38:37;11.53;;;7.67;;
7330;SDS011;3706;49.198;7.064;2022-11-15T21:41:04;10.53;;;8.53;;
7330;SDS011;3706;49.198;7.064;2022-11-15T21:43:33;11.43;;;7.47;;
7330;SDS011;3706;49.198;7.064;2022-11-15T21:46:00;10.10;;;6.27;;
7330;SDS011;3706;49.198;7.064;2022-11-15T21:48:29;10.93;;;6.20;;
7330;SDS011;3706;49.198;7.064;2022-11-15T21:50:58;7.77;;;6.40;;
7330;SDS011;3706;49.198;7.064;2022-11-15T21:53:26;7.87;;;7.00;;
7330;SDS011;3706;49.198;7.064;2022-11-15T21:55:55;7.90;;;6.73;;
7330;SDS011;3706;49.198;7.064;2022-11-15T21:58:22;7.67;;;6.53;;
7330;SDS011;3706;49.198;7.064;2022-11-15T22:00:52;7.47;;;6.57;;
7330;SDS011;3706;49.198;7.064;2022-11-15T22:03:37;8.00;;;6.30;;
7330;SDS011;3706;49.198;7.064;2022-11-15T22:06:04;7.03;;;6.20;;
7330;SDS011;3706;49.198;7.064;2022-11-15T22:08:31;7.30;;;6.37;;
7330;SDS011;3706;49.198;7.064;2022-11-15T22:10:58;10.67;;;5.63;;
7330;SDS011;3706;49.198;7.064;2022-11-15T22:13:25;10.53;;;6.67;;
7330;SDS011;3706;49.198;7.064;2022-11-15T22:15:54;7.67;;;6.87;;
7330;SDS011;3706;49.198;7.064;2022-11-15T22:18:21;9.10;;;5.93;;
7330;SDS011;3706;49.198;7.064;2022-11-15T22:20:52;6.50;;;5.73;;
7330;SDS011;3706;49.198;7.064;2022-11-15T22:23:20;9.20;;;5.70;;
7330;SDS011;3706;49.198;7.064;2022-11-15T22:25:47;7.03;;;5.63;;
7330;SDS011;3706;49.198;7.064;2022-11-15T22:28:14;8.77;;;5.63;;
7330;SDS011;3706;49.198;7.064;2022-11-15T22:30:43;5.30;;;4.37;;
7330;SDS011;3706;49.198;7.064;2022-11-15T22:33:12;7.40;;;5.97;;
7330;SDS011;3706;49.198;7.064;2022-11-15T22:35:40;9.10;;;5.73;;
7330;SDS011;3706;49.198;7.064;2022-11-15T22:38:07;8.13;;;6.00;;
7330;SDS011;3706;49.198;7.064;2022-11-15T22:40:35;9.37;;;6.17;;
7330;SDS011;3706;49.198;7.064;2022-11-15T22:43:03;7.90;;;5.57;;
7330;SDS011;3706;49.198;7.064;2022-11-15T22:45:31;7.03;;;6.13;;